createdAt,value
2018-07-22T00:02:22.079Z,14.85
2018-07-22T00:04:55.210Z,11.88
2018-07-22T00:07:30.076Z,12.82
2018-07-22T00:10:04.958Z,15.63
2018-07-22T00:12:38.031Z,14.00
2018-07-22T00:15:11.450Z,16.30
2018-07-22T00:17:44.586Z,13.55
2018-07-22T00:20:16.343Z,12.80
2018-07-22T00:22:49.566Z,15.18
2018-07-22T00:25:22.644Z,13.73
2018-07-22T00:27:55.921Z,12.95
2018-07-22T00:30:29.185Z,16.23
2018-07-22T00:33:00.716Z,13.77
2018-07-22T00:35:33.260Z,16.05
2018-07-22T00:38:04.986Z,14.40
2018-07-22T00:40:38.269Z,15.43
2018-07-22T00:43:10.007Z,18.35
2018-07-22T00:45:41.613Z,15.52
2018-07-22T00:48:13.230Z,15.45
2018-07-22T00:50:45.028Z,14.00
2018-07-22T00:53:16.685Z,16.95
2018-07-22T00:55:49.863Z,17.10
2018-07-22T00:58:23.095Z,14.70
2018-07-22T01:00:57.628Z,18.25
2018-07-22T01:03:29.452Z,15.85
2018-07-22T01:06:02.501Z,14.43
2018-07-22T01:08:37.080Z,17.52
2018-07-22T01:11:09.697Z,15.55
2018-07-22T01:13:44.256Z,18.87
2018-07-22T01:16:15.856Z,23.92
2018-07-22T01:18:49.170Z,17.92
2018-07-22T01:21:22.223Z,15.85
2018-07-22T01:23:53.845Z,15.75
2018-07-22T01:26:25.693Z,16.05
2018-07-22T01:28:57.175Z,16.20
2018-07-22T01:31:27.310Z,17.95
2018-07-22T01:33:59.870Z,16.60
2018-07-22T01:36:34.435Z,15.68
2018-07-22T01:39:10.527Z,14.80
2018-07-22T01:41:42.237Z,15.88
2018-07-22T01:44:13.228Z,18.25
2018-07-22T01:46:48.048Z,16.52
2018-07-22T01:49:18.106Z,17.67
2018-07-22T01:51:51.080Z,21.58
2018-07-22T01:54:26.004Z,19.77
2018-07-22T01:56:57.835Z,21.15
2018-07-22T01:59:30.277Z,23.23
2018-07-22T02:02:04.196Z,25.05
2018-07-22T02:04:36.373Z,22.45
2018-07-22T02:07:09.669Z,24.08
2018-07-22T02:09:41.498Z,23.35
2018-07-22T02:12:13.236Z,20.80
2018-07-22T02:14:46.355Z,22.27
2018-07-22T02:17:19.594Z,22.10
2018-07-22T02:19:54.545Z,19.15
2018-07-22T02:22:27.781Z,19.60
2018-07-22T02:25:01.171Z,23.23
2018-07-22T02:27:31.975Z,20.88
2018-07-22T02:30:06.936Z,17.75
2018-07-22T02:32:38.865Z,17.58
2018-07-22T02:35:09.923Z,17.67
2018-07-22T02:37:43.173Z,15.75
2018-07-22T02:40:16.584Z,15.60
2018-07-22T02:42:48.171Z,14.18
2018-07-22T02:45:22.919Z,18.55
2018-07-22T02:47:55.907Z,16.52
2018-07-22T02:50:30.752Z,19.27
2018-07-22T02:53:02.228Z,16.45
2018-07-22T02:55:35.404Z,17.52
2018-07-22T02:58:06.918Z,17.40
2018-07-22T03:00:39.575Z,17.17
2018-07-22T03:03:11.252Z,19.35
2018-07-22T03:05:42.903Z,19.67
2018-07-22T03:08:14.885Z,18.35
2018-07-22T03:10:46.583Z,19.40
2018-07-22T03:13:19.687Z,18.60
2018-07-22T03:15:53.485Z,22.55
2018-07-22T03:18:28.102Z,22.13
2018-07-22T03:21:01.460Z,22.35
2018-07-22T03:23:34.496Z,21.10
2018-07-22T03:26:08.078Z,23.20
2018-07-22T03:28:41.140Z,26.15
2018-07-22T03:31:14.068Z,25.60
2018-07-22T03:33:48.786Z,30.35
2018-07-22T03:36:22.039Z,30.37
2018-07-22T03:38:55.114Z,30.80
2018-07-22T03:41:28.453Z,32.45
2018-07-22T03:44:00.335Z,34.17
2018-07-22T03:46:33.254Z,31.70
2018-07-22T03:49:08.070Z,35.72
2018-07-22T03:51:41.175Z,32.90
2018-07-22T03:54:15.810Z,30.80
2018-07-22T03:56:48.132Z,29.80
2018-07-22T03:59:21.237Z,37.95
2018-07-22T04:01:52.975Z,36.90
2018-07-22T04:04:24.652Z,32.80
2018-07-22T04:06:54.203Z,36.55
2018-07-22T04:09:26.414Z,35.40
2018-07-22T04:11:59.693Z,39.38
2018-07-22T04:14:33.077Z,34.42
2018-07-22T04:17:06.462Z,31.25
2018-07-22T04:19:39.703Z,34.45
2018-07-22T04:22:10.930Z,32.92
2018-07-22T04:24:44.083Z,30.98
2018-07-22T04:27:18.640Z,31.95
2018-07-22T04:29:50.158Z,34.42
2018-07-22T04:32:22.231Z,28.85
2018-07-22T04:34:55.449Z,28.40
2018-07-22T04:37:29.914Z,32.85
2018-07-22T04:40:01.518Z,28.83
2018-07-22T04:42:31.713Z,28.83
2018-07-22T04:45:01.260Z,29.50
2018-07-22T04:47:32.893Z,26.60
2018-07-22T04:50:07.205Z,29.35
2018-07-22T04:52:38.064Z,25.00
2018-07-22T04:55:10.155Z,27.37
2018-07-22T04:57:43.186Z,24.67
2018-07-22T05:00:16.437Z,25.62
2018-07-22T05:02:49.444Z,27.35
2018-07-22T05:05:22.431Z,27.35
2018-07-22T05:07:52.586Z,24.60
2018-07-22T05:10:25.746Z,26.05
2018-07-22T05:12:58.859Z,27.55
2018-07-22T05:15:33.514Z,24.23
2018-07-22T05:18:06.541Z,24.55
2018-07-22T05:20:40.530Z,25.90
2018-07-22T05:23:14.000Z,24.90
2018-07-22T05:25:48.694Z,27.33
2018-07-22T05:28:20.091Z,27.17
2018-07-22T05:30:51.536Z,27.40
2018-07-22T05:33:21.497Z,28.42
2018-07-22T05:35:54.870Z,25.58
2018-07-22T05:38:26.647Z,27.17
2018-07-22T05:40:59.712Z,32.25
2018-07-22T05:43:34.060Z,27.48
2018-07-22T05:46:06.124Z,30.08
2018-07-22T05:48:37.688Z,26.08
2018-07-22T05:51:12.184Z,28.58
2018-07-22T05:53:46.689Z,27.60
2018-07-22T05:56:16.654Z,28.00
2018-07-22T05:58:49.638Z,27.58
2018-07-22T06:01:19.644Z,28.48
2018-07-22T06:03:50.810Z,27.40
2018-07-22T06:06:24.000Z,28.05
2018-07-22T06:08:56.882Z,27.48
2018-07-22T06:11:29.828Z,33.42
2018-07-22T06:14:02.947Z,27.75
2018-07-22T06:16:37.502Z,27.80
2018-07-22T06:19:08.973Z,31.85
2018-07-22T06:21:41.939Z,27.33
2018-07-22T06:24:16.687Z,27.17
2018-07-22T06:26:49.047Z,26.65
2018-07-22T06:29:23.459Z,25.15
2018-07-22T06:31:58.050Z,25.05
2018-07-22T06:34:31.107Z,24.48
2018-07-22T06:37:02.990Z,24.15
2018-07-22T06:39:35.914Z,25.42
2018-07-22T06:42:10.296Z,26.20
2018-07-22T06:44:41.013Z,24.75
2018-07-22T06:47:14.083Z,23.92
2018-07-22T06:49:47.166Z,23.90
2018-07-22T06:52:21.573Z,25.05
2018-07-22T06:54:53.046Z,22.55
2018-07-22T06:57:25.386Z,22.55
2018-07-22T06:59:58.499Z,21.83
2018-07-22T07:02:30.499Z,22.45
2018-07-22T07:05:05.304Z,21.83
2018-07-22T07:07:39.666Z,20.58
2018-07-22T07:10:14.222Z,18.98
2018-07-22T07:12:47.461Z,20.27
2018-07-22T07:15:21.997Z,17.85
2018-07-22T07:17:53.592Z,19.60
2018-07-22T07:20:25.127Z,19.10
2018-07-22T07:22:59.740Z,16.70
2018-07-22T07:25:32.909Z,19.00
2018-07-22T07:28:04.478Z,17.52
2018-07-22T07:30:34.392Z,18.70
2018-07-22T07:33:05.956Z,18.17
2018-07-22T07:35:37.585Z,24.83
2018-07-22T07:38:09.023Z,17.95
2018-07-22T07:40:41.898Z,16.65
2018-07-22T07:43:14.817Z,17.12
2018-07-22T07:45:45.225Z,19.20
2018-07-22T07:48:19.634Z,15.27
2018-07-22T07:50:51.231Z,15.25
2018-07-22T07:53:21.202Z,12.45
2018-07-22T07:55:54.208Z,14.95
2018-07-22T07:58:28.633Z,15.90
2018-07-22T08:01:00.102Z,14.65
2018-07-22T08:03:33.010Z,9.48
2018-07-22T08:06:06.382Z,42.00
2018-07-22T08:08:37.382Z,10.70
2018-07-22T08:11:09.800Z,8.23
2018-07-22T08:13:42.821Z,8.20
2018-07-22T08:16:14.263Z,9.80
2018-07-22T08:18:47.202Z,10.50
2018-07-22T08:21:21.654Z,10.65
2018-07-22T08:23:51.449Z,9.65
2018-07-22T08:26:21.362Z,8.10
2018-07-22T08:29:28.311Z,8.63
2018-07-22T08:31:58.414Z,10.07
2018-07-22T08:34:31.172Z,12.95
2018-07-22T08:37:03.828Z,12.98
2018-07-22T08:39:35.998Z,25.58
2018-07-22T08:42:06.194Z,46.97
2018-07-22T08:44:40.533Z,19.83
2018-07-22T08:47:13.567Z,10.20
2018-07-22T08:49:46.473Z,9.93
2018-07-22T08:52:21.268Z,10.03
2018-07-22T08:54:54.264Z,9.95
2018-07-22T08:57:28.760Z,10.20
2018-07-22T09:00:03.040Z,10.55
2018-07-22T09:02:35.254Z,9.82
2018-07-22T09:05:06.603Z,9.05
2018-07-22T09:07:41.090Z,8.60
2018-07-22T09:10:14.067Z,9.88
2018-07-22T09:12:46.939Z,9.60
2018-07-22T09:15:19.883Z,9.40
2018-07-22T09:17:54.430Z,8.63
2018-07-22T09:20:26.252Z,9.18
2018-07-22T09:22:59.340Z,9.10
2018-07-22T09:25:30.872Z,9.70
2018-07-22T09:28:03.801Z,10.88
2018-07-22T09:30:35.226Z,8.82
2018-07-22T09:33:05.182Z,8.23
2018-07-22T09:35:38.140Z,9.55
2018-07-22T09:38:09.676Z,8.98
2018-07-22T09:40:42.496Z,10.40
2018-07-22T09:43:13.893Z,11.48
2018-07-22T09:45:47.612Z,9.45
2018-07-22T09:48:21.800Z,9.77
2018-07-22T09:50:53.314Z,10.30
2018-07-22T09:53:23.302Z,18.02
2018-07-22T09:55:55.353Z,11.52
2018-07-22T09:58:29.651Z,11.20
2018-07-22T10:01:03.815Z,11.27
2018-07-22T10:03:35.344Z,8.63
2018-07-22T10:06:06.948Z,9.68
2018-07-22T10:08:36.904Z,8.98
2018-07-22T10:11:10.070Z,12.07
2018-07-22T10:13:43.063Z,11.15
2018-07-22T10:16:14.450Z,10.75
2018-07-22T10:18:48.798Z,11.55
2018-07-22T10:21:21.752Z,9.82
2018-07-22T10:23:53.701Z,12.20
2018-07-22T10:26:26.876Z,11.40
2018-07-22T10:28:58.250Z,12.45
2018-07-22T10:31:29.679Z,10.60
2018-07-22T10:34:03.972Z,19.02
2018-07-22T10:36:36.858Z,10.65
2018-07-22T10:39:11.273Z,10.38
2018-07-22T10:41:45.637Z,10.20
2018-07-22T10:44:21.096Z,16.08
2018-07-22T10:46:54.577Z,11.65
2018-07-22T10:49:27.601Z,11.60
2018-07-22T10:52:00.011Z,10.38
2018-07-22T10:54:31.397Z,9.60
2018-07-22T10:57:04.465Z,8.93
2018-07-22T10:59:37.443Z,10.35
2018-07-22T11:02:09.426Z,10.52
2018-07-22T11:04:39.283Z,10.55
2018-07-22T11:07:10.776Z,9.15
2018-07-22T11:09:42.727Z,8.77
2018-07-22T11:12:14.184Z,11.55
2018-07-22T11:14:48.743Z,10.30
2018-07-22T11:17:21.487Z,9.30
2018-07-22T11:19:53.644Z,9.40
2018-07-22T11:22:27.142Z,8.82
2018-07-22T11:24:57.788Z,9.85
2018-07-22T11:27:30.701Z,9.80
2018-07-22T11:30:05.282Z,8.05
2018-07-22T11:32:38.315Z,9.00
2018-07-22T11:35:11.447Z,11.77
2018-07-22T11:37:41.999Z,10.25
2018-07-22T11:40:14.821Z,8.70
2018-07-22T11:42:44.710Z,9.23
2018-07-22T11:45:19.161Z,8.32
2018-07-22T11:47:50.676Z,9.80
2018-07-22T11:50:19.811Z,10.60
2018-07-22T11:52:52.765Z,9.68
2018-07-22T11:55:27.108Z,9.27
2018-07-22T11:57:58.475Z,9.38
2018-07-22T12:00:30.977Z,10.13
2018-07-22T12:03:01.096Z,12.40
2018-07-22T12:05:33.971Z,14.00
2018-07-22T12:08:07.247Z,8.68
2018-07-22T12:10:40.153Z,9.27
2018-07-22T12:13:12.084Z,10.75
2018-07-22T12:15:44.962Z,10.25
2018-07-22T12:18:14.053Z,13.10
2018-07-22T12:20:47.168Z,10.13
2018-07-22T12:23:18.545Z,13.90
2018-07-22T12:25:51.396Z,13.45
2018-07-22T12:28:23.073Z,11.40
2018-07-22T12:30:55.595Z,11.18
2018-07-22T12:33:28.437Z,11.48
2018-07-22T12:35:58.258Z,11.32
2018-07-22T12:38:29.618Z,10.38
2018-07-22T12:41:02.508Z,9.25
2018-07-22T12:43:33.937Z,9.25
2018-07-22T12:46:08.424Z,10.98
2018-07-22T12:48:41.291Z,9.07
2018-07-22T12:51:11.472Z,11.63
2018-07-22T12:53:42.012Z,9.68
2018-07-22T12:56:14.874Z,7.43
2018-07-22T12:58:47.790Z,7.78
2018-07-22T13:01:17.793Z,11.23
2018-07-22T13:03:47.611Z,9.32
2018-07-22T13:06:19.085Z,7.65
2018-07-22T13:08:50.512Z,8.25
2018-07-22T13:11:21.930Z,7.10
2018-07-22T13:13:56.567Z,7.40
2018-07-22T13:16:29.402Z,6.65
2018-07-22T13:19:00.898Z,10.13
2018-07-22T13:21:33.677Z,11.25
2018-07-22T13:24:05.246Z,7.45
2018-07-22T13:26:36.734Z,8.82
2018-07-22T13:29:09.068Z,7.05
2018-07-22T13:31:42.025Z,8.55
2018-07-22T13:34:13.461Z,10.70
2018-07-22T13:36:43.531Z,9.18
2018-07-22T13:39:15.063Z,6.55
2018-07-22T13:41:47.868Z,6.50
2018-07-22T13:44:19.765Z,9.65
2018-07-22T13:46:51.362Z,8.90
2018-07-22T13:49:24.370Z,7.45
2018-07-22T13:51:55.352Z,7.82
2018-07-22T13:54:28.179Z,7.47
2018-07-22T13:57:01.259Z,8.13
2018-07-22T13:59:31.324Z,7.72
2018-07-22T14:02:04.387Z,8.70
2018-07-22T14:04:37.429Z,8.93
2018-07-22T14:07:10.506Z,8.35
2018-07-22T14:09:41.874Z,10.32
2018-07-22T14:12:13.305Z,8.65
2018-07-22T14:14:46.302Z,8.85
2018-07-22T14:17:16.873Z,9.00
2018-07-22T14:19:48.248Z,9.13
2018-07-22T14:22:18.325Z,8.25
2018-07-22T14:24:49.874Z,6.57
2018-07-22T14:27:21.546Z,7.72
2018-07-22T14:29:53.067Z,5.45
2018-07-22T14:32:25.182Z,6.05
2018-07-22T14:34:55.165Z,8.10
2018-07-22T14:37:25.104Z,5.80
2018-07-22T14:39:58.146Z,4.97
2018-07-22T14:42:30.327Z,4.80
2018-07-22T14:45:01.759Z,5.78
2018-07-22T14:47:31.826Z,3.95
2018-07-22T14:50:03.242Z,4.32
2018-07-22T14:52:36.139Z,4.57
2018-07-22T14:55:09.090Z,5.90
2018-07-22T14:57:42.070Z,6.65
2018-07-22T15:00:14.333Z,6.00
2018-07-22T15:02:45.653Z,4.43
2018-07-22T15:05:17.735Z,3.25
2018-07-22T15:07:49.677Z,3.85
2018-07-22T15:10:23.998Z,4.22
2018-07-22T15:12:55.914Z,3.60
2018-07-22T15:15:27.332Z,4.35
2018-07-22T15:17:58.746Z,4.97
2018-07-22T15:20:31.688Z,3.37
2018-07-22T15:23:06.119Z,3.67
2018-07-22T15:25:39.041Z,5.57
2018-07-22T15:28:10.445Z,3.70
2018-07-22T15:30:40.400Z,4.45
2018-07-22T15:33:14.829Z,3.25
2018-07-22T15:35:45.706Z,14.07
2018-07-22T15:38:18.653Z,6.55
2018-07-22T15:40:48.551Z,3.92
2018-07-22T15:43:22.315Z,4.43
2018-07-22T15:45:56.728Z,4.03
2018-07-22T15:48:28.799Z,3.65
2018-07-22T15:51:03.464Z,4.05
2018-07-22T15:53:37.863Z,3.65
2018-07-22T15:56:10.839Z,8.82
2018-07-22T15:58:43.737Z,4.10
2018-07-22T16:01:13.717Z,4.53
2018-07-22T16:03:45.550Z,4.60
2018-07-22T16:06:18.454Z,4.15
2018-07-22T16:08:50.757Z,4.07
2018-07-22T16:11:23.698Z,4.30
2018-07-22T16:13:56.657Z,4.62
2018-07-22T16:16:29.739Z,4.28
2018-07-22T16:19:01.295Z,4.57
2018-07-22T16:21:31.210Z,5.12
2018-07-22T16:24:02.600Z,5.75
2018-07-22T16:26:33.915Z,4.25
2018-07-22T16:29:05.074Z,6.28
2018-07-22T16:31:37.962Z,6.75
2018-07-22T16:34:10.873Z,4.40
2018-07-22T16:36:42.367Z,5.70
2018-07-22T16:39:14.304Z,6.03
2018-07-22T16:41:48.928Z,5.60
2018-07-22T16:44:22.109Z,6.45
2018-07-22T16:46:56.475Z,6.30
2018-07-22T16:49:30.801Z,6.10
2018-07-22T16:52:02.168Z,6.10
2018-07-22T16:54:36.602Z,5.20
2018-07-22T16:57:08.138Z,7.03
2018-07-22T16:59:39.596Z,11.77
2018-07-22T17:02:14.068Z,6.28
2018-07-22T17:04:46.558Z,6.32
2018-07-22T17:07:19.526Z,6.18
2018-07-22T17:09:52.436Z,5.40
2018-07-22T17:12:25.441Z,10.30
2018-07-22T17:14:58.360Z,7.25
2018-07-22T17:17:31.414Z,7.07
2018-07-22T17:20:04.436Z,11.32
2018-07-22T17:22:37.714Z,7.97
2018-07-22T17:25:12.061Z,7.32
2018-07-22T17:27:46.514Z,11.18
2018-07-22T17:30:16.623Z,6.57
2018-07-22T17:32:46.547Z,6.62
2018-07-22T17:35:18.103Z,7.35
2018-07-22T17:37:51.083Z,8.68
2018-07-22T17:40:22.491Z,7.65
2018-07-22T17:42:53.897Z,5.87
2018-07-22T17:45:27.108Z,8.52
2018-07-22T17:47:58.580Z,7.85
2018-07-22T17:50:32.959Z,6.22
2018-07-22T17:53:04.732Z,8.13
2018-07-22T17:55:37.763Z,6.75
2018-07-22T17:58:10.815Z,8.18
2018-07-22T18:00:42.444Z,7.43
2018-07-22T18:03:32.217Z,8.40
2018-07-22T18:06:03.627Z,7.47
2018-07-22T18:08:34.720Z,7.62
2018-07-22T18:11:07.595Z,9.60
2018-07-22T18:13:40.659Z,8.07
2018-07-22T18:16:13.770Z,9.18
2018-07-22T18:18:47.055Z,8.50
2018-07-22T18:21:21.477Z,8.70
2018-07-22T18:23:53.469Z,12.37
2018-07-22T18:26:25.083Z,9.57
2018-07-22T18:28:58.391Z,7.75
2018-07-22T18:31:30.448Z,7.20
2018-07-22T18:34:01.933Z,7.68
2018-07-22T18:36:34.001Z,9.93
2018-07-22T18:39:07.432Z,8.35
2018-07-22T18:41:40.450Z,7.32
2018-07-22T18:44:11.813Z,8.25
2018-07-22T18:46:44.017Z,9.18
2018-07-22T18:49:17.042Z,8.07
2018-07-22T18:51:48.566Z,6.85
2018-07-22T18:54:21.119Z,9.55
2018-07-22T18:56:51.001Z,10.82
2018-07-22T18:59:24.059Z,6.97
2018-07-22T19:01:55.444Z,9.73
2018-07-22T19:04:27.551Z,8.07
2018-07-22T19:06:59.271Z,13.20
2018-07-22T19:09:32.374Z,6.97
2018-07-22T19:12:05.358Z,16.83
2018-07-22T19:14:37.521Z,7.55
2018-07-22T19:17:08.225Z,12.82
2018-07-22T19:19:42.806Z,7.20
2018-07-22T19:22:15.669Z,7.65
2018-07-22T19:24:47.159Z,14.10
2018-07-22T19:27:21.651Z,7.35
2018-07-22T19:29:54.652Z,7.05
2018-07-22T19:32:24.621Z,6.53
2018-07-22T19:34:59.039Z,10.70
2018-07-22T19:37:30.603Z,6.50
2018-07-22T19:40:03.766Z,20.25
2018-07-22T19:42:36.891Z,5.85
2018-07-22T19:45:10.484Z,6.15
2018-07-22T19:47:43.351Z,5.22
2018-07-22T19:50:16.233Z,7.03
2018-07-22T19:52:47.764Z,6.00
2018-07-22T19:55:19.270Z,7.80
2018-07-22T19:57:53.283Z,7.10
2018-07-22T20:00:26.410Z,10.52
2018-07-22T20:02:59.460Z,7.60
2018-07-22T20:05:31.117Z,7.00
2018-07-22T20:08:02.531Z,17.15
2018-07-22T20:10:34.025Z,6.12
2018-07-22T20:13:04.217Z,9.25
2018-07-22T20:15:37.081Z,8.50
2018-07-22T20:18:10.352Z,12.45
2018-07-22T20:20:43.478Z,8.95
2018-07-22T20:23:16.471Z,11.70
2018-07-22T20:25:49.584Z,8.68
2018-07-22T20:28:24.191Z,7.80
2018-07-22T20:30:57.063Z,9.30
2018-07-22T20:33:27.102Z,9.63
2018-07-22T20:36:00.202Z,9.35
2018-07-22T20:38:34.950Z,11.98
2018-07-22T20:41:07.942Z,8.82
2018-07-22T20:43:39.573Z,11.18
2018-07-22T20:46:11.303Z,8.95
2018-07-22T20:48:44.334Z,8.93
2018-07-22T20:51:15.855Z,11.32
2018-07-22T20:53:48.550Z,9.35
2018-07-22T20:56:20.336Z,9.55
2018-07-22T20:58:53.250Z,9.90
2018-07-22T21:01:26.373Z,9.85
2018-07-22T21:03:57.849Z,16.10
2018-07-22T21:06:29.469Z,9.70
2018-07-22T21:09:00.956Z,9.57
2018-07-22T21:12:04.034Z,10.65
2018-07-22T21:14:35.659Z,11.18
2018-07-22T21:17:07.197Z,11.77
2018-07-22T21:19:40.326Z,11.18
2018-07-22T21:22:13.757Z,11.77
2018-07-22T21:24:45.177Z,11.20
2018-07-22T21:27:18.609Z,11.57
2018-07-22T21:29:50.124Z,12.73
2018-07-22T21:32:23.119Z,14.70
2018-07-22T21:34:54.996Z,15.23
2018-07-22T21:37:26.837Z,12.98
2018-07-22T21:40:01.536Z,16.77
2018-07-22T21:42:34.663Z,13.07
2018-07-22T21:45:08.584Z,16.73
2018-07-22T21:47:41.624Z,13.73
2018-07-22T21:50:14.750Z,15.50
2018-07-22T21:52:48.382Z,13.40
2018-07-22T21:55:20.927Z,16.73
2018-07-22T21:57:53.901Z,13.25
2018-07-22T22:00:48.029Z,14.45
2018-07-22T22:03:21.152Z,15.30
2018-07-22T22:05:54.436Z,15.35
2018-07-22T22:08:24.650Z,16.73
2018-07-22T22:10:56.864Z,13.52
2018-07-22T22:13:31.548Z,13.40
2018-07-22T22:16:01.605Z,15.93
2018-07-22T22:18:34.597Z,15.10
2018-07-22T22:21:06.309Z,14.63
2018-07-22T22:23:37.737Z,14.80
2018-07-22T22:26:10.960Z,16.20
2018-07-22T22:28:42.421Z,18.02
2018-07-22T22:31:15.359Z,17.87
2018-07-22T22:33:49.896Z,17.65
2018-07-22T22:36:23.844Z,14.63
2018-07-22T22:38:59.023Z,16.27
2018-07-22T22:41:33.546Z,16.33
2018-07-22T22:44:03.555Z,17.12
2018-07-22T22:46:35.054Z,15.68
2018-07-22T22:49:10.213Z,18.05
2018-07-22T22:51:43.312Z,15.10
2018-07-22T22:54:16.511Z,18.30
2018-07-22T22:56:46.531Z,16.85
2018-07-22T22:59:24.855Z,15.25
2018-07-22T23:01:57.968Z,17.80
2018-07-22T23:04:29.521Z,27.13
2018-07-22T23:07:02.146Z,22.23
2018-07-22T23:09:35.184Z,18.17
2018-07-22T23:12:08.188Z,16.62
2018-07-22T23:14:39.840Z,18.12
2018-07-22T23:17:14.544Z,18.40
2018-07-22T23:19:47.705Z,18.75
2018-07-22T23:22:20.891Z,16.55
2018-07-22T23:24:55.562Z,19.27
2018-07-22T23:27:28.599Z,23.75
2018-07-22T23:29:58.707Z,21.02
2018-07-22T23:32:31.934Z,25.85
2018-07-22T23:35:04.972Z,20.62
2018-07-22T23:37:39.480Z,19.83
2018-07-22T23:40:10.251Z,14.15
2018-07-22T23:42:42.034Z,15.00
2018-07-22T23:45:15.146Z,15.82
2018-07-22T23:47:48.386Z,16.17
2018-07-22T23:50:22.257Z,17.65
2018-07-22T23:52:55.426Z,18.02
2018-07-22T23:55:27.306Z,20.42
2018-07-22T23:57:58.802Z,16.10
